GCGM/GMZ METAR and TAF weather

Enter ICAO airport designator
Station Type Date Time Source
GCGM METAR 2021/07/24 21:00 UTC NOAA

GCGM 242100Z AUTO 23003KT 200V260 CAVOK 22/19 Q1016 RMK R09/VRB01KT ARP/VRB02KT


Station Type Date Time Source
GCGM Decoded METAR 2021/07/24 21:00 UTC NOAA

Station name not available
Jul 24, 2021 - 05:00 PM EDT / 2021.07.24 2100 UTC
Wind: from the SW (230 degrees) at 3 MPH (3 KT) (direction variable):0
Visibility: greater than 7 mile(s):0
Temperature: 71 F (22 C)
Dew Point: 66 F (19 C)
Relative Humidity: 83%
Pressure (altimeter): 30.00 in. Hg (1016 hPa)
ob: GCGM 242100Z AUTO 23003KT 200V260 CAVOK 22/19 Q1016 RMK R09/VRB01KT ARP/VRB02KT
cycle: 21

Station Type Date Time Source
GCGM TAF 2021/07/24 21:00 UTC NOAA

TAF GCGM 242000Z 2421/2521 22005KT 9999 FEW015 TX27/2514Z TN20/2506Z

Example: see airport list